Ponce De Leon, FL

8:36 AM CDT on July 28, 2014 (GMT -0500)
WZEP AM 1460 DeFuniak Springs, FL (KFLDEFUN2) Elev 174 ft | 30.73 °N, 86.12 °W | Change Station
Active Advisory: Heat Advisory

Current weather conditions updated 1 second ago

Clear
Clear
84.3 °F
Feels Like 97 °F
N
0.0
Wind Variable Wind from North
Gusts 0.0 mph

Today is forecast to be nearly the same temperature as yesterday. Thunderstorms developing in the afternoon.

Today
High -- | Low -- °F
--% Chance of Precip.
Yesterday
High -- | Low -- °F
Precip. -- in
5:59 AM 7:41 PM
New Moon, 2% visible
Pressure 30.04 in
Visibility 10.0 miles
Clouds Clear
Heat Index 97 °F
Dew Point 79 °F
Humidity 85%
Rainfall 0.00 in
Snow Depth Not available.
UV 3 out of 12
Pollen 4.40 out of 12
Air Quality Not available.
Flu Activity Not available.
METAR K54J 281315Z AUTO 28005KT 10SM CLR 28/25 A3004 RMK AO2 T02790248

More Conditions Fewer Conditions

Pressure 30.04 in
Visibility 10.0 miles
Clouds Clear
Heat Index 97 °F
Dew Point 79 °F
Humidity 85%
Rainfall 0.00 in
Snow Depth Not available.
UV 3 out of 12
Pollen 4.40 out of 12
Air Quality Not available.
Flu Activity Not available.
METAR K54J 281315Z AUTO 28005KT 10SM CLR 28/25 A3004 RMK AO2 T02790248

More Conditions Fewer Conditions

10-Day Weather Forecast

Almanac

Astronomy

Jul. 28, 2014 Rise Set
Actual Time 5:59 AM CDT 7:41 PM CDT
Civil Twilight 5:32 AM CDT 8:07 PM CDT
Nautical Twilight 5:00 AM CDT 8:39 PM CDT
Astronomical Twilight 4:27 AM CDT 9:12 PM CDT
Moon 7:29 AM CDT 8:34 PM CDT
Length of Visible Light 14h 34m
Length of Day
13h 42m
Tomorrow will be 1m 18s shorter.
New Moon, 2% of the Moon is Illuminated
Today
New Moon
Aug 3
First Quarter
Aug 10
Full
Aug 17
Last Quarter
Aug 25
New

Today's Extremes

State Highs State Lows

Community

WunderPhotos

Upload Photos

1,738,328 photos uploaded!

Nearby

Snow Depth

Station Depth Elevation
No new snow has been reported.

Earthquake Activity

City Distance Mag. Time & Date
No recent earthquake activity has been reported nearby.
Minimum magnitude displayed is 2.5.

Coastal Water Temperatures

Place Temperature
No Stations Reporting

Nearby Weather Stations

Station Location Temp. Heat Index Dew Point Humidity Wind Precip. Elev Updated Type
WZEP AM 1460 DeFuniak Springs, FL, DeFuniak Springs, FL 84.3 °F 97 °F 79 °F 85% North  at  0.0 mph 0.00 in / hr 174 ft 8:36 AM CDT Rapid Fire
West End (Foy), DeFuniak Springs, FL 84.2 °F 103 °F 84 °F 98% WNW  at  2.7 mph - / hr 272 ft 8:28 AM CDT Normal
Bob's Backyard Weather, Bonifay, FL 83.6 °F 95 °F 79 °F 87% ENE  at  0.0 mph 0.00 in / hr 131 ft 9:22 AM EDT Normal
APRSWXNET Bonifay FL , Caryville, FL 81 °F 88 °F 78 °F 90% NE  at  0 mph 0.00 in / hr 144 ft 7:58 AM CDT MADIS
Windmaster Farms, DeFuniak Springs, FL 82.7 °F 94 °F 80 °F 91% WNW  at  5.8 mph 0.00 in / hr 237 ft 8:35 AM CDT Rapid Fire
Waterview Cove, Freeport, FL 84.0 °F 97 °F 80 °F 88% WNW  at  2.0 mph 0.00 in / hr 18 ft 8:36 AM CDT Rapid Fire

Show More Stations Show Fewer Stations